AIQ728 VECC-VTBS
Flight info
| Callsign | AIQ728 |
|---|---|
| Flight time | 2h 8m |
| Altitude | 37000 |
| Route | DOPID2C DOPID P646 TARED DCT WILLA WILLA1C |
| Aircraft | A320/M-SDE3FGHIRWY/LB1 |
Departure
| Time | 2026-04-24 12:26 |
|---|---|
| Airport | Netaji Subhash Chandra Bose International Airport (VECC) |
Arrival
| Time | 2026-04-24 14:34 |
|---|---|
| Airport | Suvarnabhumi Airport (VTBS) |
| Time | Latitude | Longitude | Altitude | Speed | Heading |
|---|---|---|---|---|---|
| 2026-04-24 12:06 | 22.64572 | 88.44104 | 24 ft | 0 kts | 268° |
| 2026-04-24 12:10 | 22.64572 | 88.44106 | 24 ft | 2 kts | 267° |
| 2026-04-24 12:11 | 22.64573 | 88.44142 | 24 ft | 2 kts | 268° |
| 2026-04-24 12:11 | 22.64574 | 88.44159 | 24 ft | 2 kts | 271° |
| 2026-04-24 12:11 | 22.64568 | 88.44175 | 29 ft | 2 kts | 1° |
| 2026-04-24 12:11 | 22.64552 | 88.44174 | 26 ft | 2 kts | 7° |
| 2026-04-24 12:12 | 22.64536 | 88.44172 | 28 ft | 2 kts | 7° |
| 2026-04-24 12:12 | 22.64533 | 88.44171 | 27 ft | 0 kts | 7° |
| 2026-04-24 12:14 | 22.64538 | 88.44172 | 28 ft | 3 kts | 7° |
| 2026-04-24 12:14 | 22.64582 | 88.44177 | 24 ft | 10 kts | 6° |
| 2026-04-24 12:15 | 22.64669 | 88.44187 | 24 ft | 16 kts | 6° |
| 2026-04-24 12:15 | 22.64783 | 88.44200 | 24 ft | 15 kts | 6° |
| 2026-04-24 12:15 | 22.64882 | 88.44212 | 25 ft | 14 kts | 6° |
| 2026-04-24 12:15 | 22.64971 | 88.44222 | 24 ft | 12 kts | 6° |
| 2026-04-24 12:16 | 22.65046 | 88.44240 | 24 ft | 10 kts | 38° |
| 2026-04-24 12:16 | 22.65078 | 88.44302 | 24 ft | 9 kts | 65° |
| 2026-04-24 12:16 | 22.65112 | 88.44384 | 26 ft | 15 kts | 65° |
| 2026-04-24 12:16 | 22.65197 | 88.44424 | 24 ft | 13 kts | 5° |
| 2026-04-24 12:17 | 22.65291 | 88.44435 | 25 ft | 16 kts | 6° |
| 2026-04-24 12:17 | 22.65416 | 88.44449 | 27 ft | 18 kts | 6° |
| 2026-04-24 12:17 | 22.65531 | 88.44463 | 30 ft | 15 kts | 6° |
| 2026-04-24 12:17 | 22.65630 | 88.44475 | 30 ft | 14 kts | 6° |
| 2026-04-24 12:18 | 22.65718 | 88.44486 | 28 ft | 13 kts | 6° |
| 2026-04-24 12:18 | 22.65821 | 88.44461 | 27 ft | 16 kts | 352° |
| 2026-04-24 12:18 | 22.65928 | 88.44450 | 27 ft | 15 kts | 351° |
| 2026-04-24 12:18 | 22.66025 | 88.44454 | 25 ft | 13 kts | 7° |
| 2026-04-24 12:19 | 22.66133 | 88.44468 | 25 ft | 19 kts | 6° |
| 2026-04-24 12:19 | 22.66265 | 88.44484 | 27 ft | 18 kts | 6° |
| 2026-04-24 12:19 | 22.66384 | 88.44498 | 26 ft | 16 kts | 6° |
| 2026-04-24 12:19 | 22.66492 | 88.44512 | 25 ft | 16 kts | 7° |
| 2026-04-24 12:20 | 22.66622 | 88.44537 | 25 ft | 22 kts | 11° |
| 2026-04-24 12:20 | 22.66753 | 88.44564 | 26 ft | 17 kts | 8° |
| 2026-04-24 12:20 | 22.66865 | 88.44579 | 25 ft | 15 kts | 6° |
| 2026-04-24 12:20 | 22.66966 | 88.44590 | 29 ft | 15 kts | 5° |
| 2026-04-24 12:21 | 22.67092 | 88.44602 | 27 ft | 20 kts | 5° |
| 2026-04-24 12:21 | 22.67219 | 88.44620 | 26 ft | 17 kts | 17° |
| 2026-04-24 12:21 | 22.67290 | 88.44711 | 27 ft | 15 kts | 61° |
| 2026-04-24 12:21 | 22.67329 | 88.44795 | 27 ft | 11 kts | 68° |
| 2026-04-24 12:22 | 22.67333 | 88.44865 | 27 ft | 7 kts | 95° |
| 2026-04-24 12:22 | 22.67331 | 88.44896 | 27 ft | 3 kts | 95° |
| 2026-04-24 12:22 | 22.67328 | 88.44934 | 27 ft | 8 kts | 95° |
| 2026-04-24 12:22 | 22.67303 | 88.44991 | 28 ft | 10 kts | 169° |
| 2026-04-24 12:23 | 22.67282 | 88.44989 | 28 ft | 0 kts | 186° |
| 2026-04-24 12:25 | 22.67281 | 88.44989 | 28 ft | 1 kts | 186° |
| 2026-04-24 12:25 | 22.67147 | 88.44973 | 26 ft | 52 kts | 186° |
| 2026-04-24 12:25 | 22.66569 | 88.44906 | 23 ft | 112 kts | 186° |
| 2026-04-24 12:26 | 22.65632 | 88.44796 | 28 ft | 157 kts | 186° |
| 2026-04-24 12:26 | 22.64501 | 88.44660 | 518 ft | 162 kts | 185° |
| 2026-04-24 12:26 | 22.63380 | 88.44527 | 1113 ft | 162 kts | 185° |
| 2026-04-24 12:26 | 22.62249 | 88.44754 | 1520 ft | 178 kts | 153° |
| 2026-04-24 12:27 | 22.61303 | 88.45745 | 1746 ft | 205 kts | 128° |
| 2026-04-24 12:27 | 22.60422 | 88.47071 | 2030 ft | 228 kts | 127° |
| 2026-04-24 12:27 | 22.59442 | 88.48539 | 2357 ft | 252 kts | 127° |
| 2026-04-24 12:27 | 22.58402 | 88.50094 | 2947 ft | 262 kts | 127° |
| 2026-04-24 12:28 | 22.57317 | 88.51710 | 3644 ft | 268 kts | 126° |
| 2026-04-24 12:28 | 22.56206 | 88.53364 | 4300 ft | 275 kts | 125° |
| 2026-04-24 12:28 | 22.55069 | 88.55060 | 4965 ft | 280 kts | 125° |
| 2026-04-24 12:28 | 22.53913 | 88.56778 | 5652 ft | 284 kts | 125° |
| 2026-04-24 12:29 | 22.52737 | 88.58519 | 6359 ft | 287 kts | 125° |
| 2026-04-24 12:29 | 22.51548 | 88.60278 | 6973 ft | 293 kts | 126° |
| 2026-04-24 12:29 | 22.50331 | 88.62068 | 7639 ft | 297 kts | 126° |
| 2026-04-24 12:29 | 22.49110 | 88.63859 | 8300 ft | 302 kts | 126° |
| 2026-04-24 12:30 | 22.47853 | 88.65705 | 8962 ft | 307 kts | 126° |
| 2026-04-24 12:30 | 22.46575 | 88.67574 | 9616 ft | 312 kts | 129° |
| 2026-04-24 12:30 | 22.44982 | 88.69174 | 10221 ft | 314 kts | 148° |
| 2026-04-24 12:30 | 22.43011 | 88.70268 | 10619 ft | 327 kts | 156° |
| 2026-04-24 12:31 | 22.40868 | 88.71332 | 10749 ft | 350 kts | 156° |
| 2026-04-24 12:31 | 22.38602 | 88.72446 | 11070 ft | 363 kts | 156° |
| 2026-04-24 12:31 | 22.36313 | 88.73566 | 11618 ft | 367 kts | 156° |
| 2026-04-24 12:31 | 22.33974 | 88.74713 | 12247 ft | 369 kts | 156° |
| 2026-04-24 12:32 | 22.31627 | 88.75869 | 12864 ft | 372 kts | 155° |
| 2026-04-24 12:32 | 22.29260 | 88.77040 | 13493 ft | 374 kts | 155° |
| 2026-04-24 12:32 | 22.26888 | 88.78214 | 14072 ft | 375 kts | 155° |
| 2026-04-24 12:32 | 22.24586 | 88.79549 | 14614 ft | 378 kts | 144° |
| 2026-04-24 12:33 | 22.22590 | 88.81410 | 15145 ft | 380 kts | 138° |
| 2026-04-24 12:33 | 22.20636 | 88.83341 | 15693 ft | 381 kts | 138° |
| 2026-04-24 12:33 | 22.18704 | 88.85263 | 16228 ft | 384 kts | 137° |
| 2026-04-24 12:33 | 22.16739 | 88.87224 | 16774 ft | 385 kts | 138° |
| 2026-04-24 12:34 | 22.14762 | 88.89192 | 17301 ft | 388 kts | 138° |
| 2026-04-24 12:34 | 22.12774 | 88.91164 | 17820 ft | 390 kts | 139° |
| 2026-04-24 12:34 | 22.10770 | 88.93148 | 18281 ft | 393 kts | 139° |
| 2026-04-24 12:34 | 22.08747 | 88.95148 | 18681 ft | 396 kts | 139° |
| 2026-04-24 12:35 | 22.06708 | 88.97163 | 19066 ft | 400 kts | 139° |
| 2026-04-24 12:35 | 22.04649 | 88.99200 | 19467 ft | 403 kts | 139° |
| 2026-04-24 12:35 | 22.02577 | 89.01253 | 19854 ft | 406 kts | 139° |
| 2026-04-24 12:35 | 22.00488 | 89.03323 | 20241 ft | 409 kts | 139° |
| 2026-04-24 12:36 | 21.98381 | 89.05410 | 20630 ft | 412 kts | 139° |
| 2026-04-24 12:36 | 21.96286 | 89.07482 | 21014 ft | 415 kts | 139° |
| 2026-04-24 12:36 | 21.94142 | 89.09598 | 21392 ft | 419 kts | 139° |
| 2026-04-24 12:36 | 21.91983 | 89.11725 | 21765 ft | 422 kts | 139° |
| 2026-04-24 12:37 | 21.89807 | 89.13866 | 22133 ft | 425 kts | 139° |
| 2026-04-24 12:37 | 21.87618 | 89.16023 | 22481 ft | 428 kts | 139° |
| 2026-04-24 12:37 | 21.85415 | 89.18198 | 22845 ft | 431 kts | 139° |
| 2026-04-24 12:37 | 21.83194 | 89.20390 | 23206 ft | 434 kts | 140° |
| 2026-04-24 12:38 | 21.80989 | 89.22567 | 23515 ft | 437 kts | 140° |
| 2026-04-24 12:38 | 21.78735 | 89.24789 | 23755 ft | 441 kts | 140° |
| 2026-04-24 12:38 | 21.76459 | 89.27029 | 24016 ft | 445 kts | 140° |
| 2026-04-24 12:39 | 21.69539 | 89.33844 | 24825 ft | 453 kts | 141° |
| 2026-04-24 12:39 | 21.67202 | 89.36140 | 25102 ft | 456 kts | 141° |
| 2026-04-24 12:39 | 21.64884 | 89.38411 | 25365 ft | 459 kts | 141° |
| 2026-04-24 12:40 | 21.62518 | 89.40729 | 25631 ft | 461 kts | 141° |
| 2026-04-24 12:40 | 21.60135 | 89.43060 | 25890 ft | 464 kts | 141° |
| 2026-04-24 12:40 | 21.57741 | 89.45397 | 26143 ft | 466 kts | 141° |
| 2026-04-24 12:40 | 21.55332 | 89.47754 | 26398 ft | 469 kts | 141° |
| 2026-04-24 12:41 | 21.52914 | 89.50124 | 26673 ft | 472 kts | 141° |
| 2026-04-24 12:41 | 21.50482 | 89.52511 | 26925 ft | 474 kts | 141° |
| 2026-04-24 12:41 | 21.48040 | 89.54907 | 27161 ft | 477 kts | 141° |
| 2026-04-24 12:41 | 21.45614 | 89.57291 | 27394 ft | 480 kts | 142° |
| 2026-04-24 12:42 | 21.43141 | 89.59719 | 27639 ft | 482 kts | 142° |
| 2026-04-24 12:42 | 21.40654 | 89.62158 | 27881 ft | 485 kts | 142° |
| 2026-04-24 12:42 | 21.38153 | 89.64603 | 28123 ft | 487 kts | 142° |
| 2026-04-24 12:42 | 21.35634 | 89.67055 | 28353 ft | 489 kts | 142° |
| 2026-04-24 12:43 | 21.33103 | 89.69515 | 28581 ft | 492 kts | 142° |
| 2026-04-24 12:43 | 21.30562 | 89.71988 | 28798 ft | 494 kts | 142° |
| 2026-04-24 12:43 | 21.28009 | 89.74478 | 29014 ft | 496 kts | 142° |
| 2026-04-24 12:43 | 21.25482 | 89.76946 | 29228 ft | 498 kts | 142° |
| 2026-04-24 12:44 | 21.22914 | 89.79454 | 29441 ft | 500 kts | 142° |
| 2026-04-24 12:44 | 21.20335 | 89.81970 | 29652 ft | 502 kts | 142° |
| 2026-04-24 12:44 | 21.17742 | 89.84492 | 29856 ft | 504 kts | 142° |
| 2026-04-24 12:44 | 21.15134 | 89.87026 | 30040 ft | 506 kts | 142° |
| 2026-04-24 12:45 | 21.12521 | 89.89564 | 30269 ft | 506 kts | 142° |
| 2026-04-24 12:45 | 21.09925 | 89.92087 | 30626 ft | 503 kts | 142° |
| 2026-04-24 12:45 | 21.07341 | 89.94604 | 30970 ft | 500 kts | 143° |
| 2026-04-24 12:45 | 21.04767 | 89.97111 | 31304 ft | 498 kts | 143° |
| 2026-04-24 12:46 | 21.02209 | 89.99595 | 31637 ft | 496 kts | 143° |
| 2026-04-24 12:46 | 20.99653 | 90.02071 | 31942 ft | 494 kts | 143° |
| 2026-04-24 12:46 | 20.97136 | 90.04506 | 32252 ft | 493 kts | 143° |
| 2026-04-24 12:46 | 20.94594 | 90.06970 | 32567 ft | 491 kts | 143° |
| 2026-04-24 12:47 | 20.92067 | 90.09422 | 32904 ft | 489 kts | 143° |
| 2026-04-24 12:47 | 20.89545 | 90.11868 | 33239 ft | 488 kts | 143° |
| 2026-04-24 12:47 | 20.87035 | 90.14299 | 33577 ft | 486 kts | 144° |
| 2026-04-24 12:47 | 20.84534 | 90.16717 | 33899 ft | 484 kts | 144° |
| 2026-04-24 12:48 | 20.82036 | 90.19129 | 34166 ft | 483 kts | 144° |
| 2026-04-24 12:48 | 20.79543 | 90.21535 | 34389 ft | 482 kts | 144° |
| 2026-04-24 12:48 | 20.77086 | 90.23904 | 34643 ft | 481 kts | 144° |
| 2026-04-24 12:48 | 20.74593 | 90.26303 | 34871 ft | 481 kts | 144° |
| 2026-04-24 12:49 | 20.72107 | 90.28697 | 35081 ft | 481 kts | 144° |
| 2026-04-24 12:49 | 20.69622 | 90.31096 | 35275 ft | 482 kts | 144° |
| 2026-04-24 12:49 | 20.67131 | 90.33499 | 35466 ft | 482 kts | 144° |
| 2026-04-24 12:49 | 20.64638 | 90.35903 | 35647 ft | 482 kts | 144° |
| 2026-04-24 12:50 | 20.62146 | 90.38307 | 35823 ft | 483 kts | 144° |
| 2026-04-24 12:50 | 20.59649 | 90.40712 | 35974 ft | 484 kts | 144° |
| 2026-04-24 12:50 | 20.57147 | 90.43121 | 36137 ft | 484 kts | 144° |
| 2026-04-24 12:50 | 20.54648 | 90.45529 | 36302 ft | 485 kts | 144° |
| 2026-04-24 12:51 | 20.52170 | 90.47912 | 36470 ft | 485 kts | 144° |
| 2026-04-24 12:51 | 20.49660 | 90.50322 | 36621 ft | 485 kts | 144° |
| 2026-04-24 12:51 | 20.47153 | 90.52730 | 36772 ft | 486 kts | 144° |
| 2026-04-24 12:52 | 20.42125 | 90.57551 | 36814 ft | 485 kts | 144° |
| 2026-04-24 12:52 | 20.37098 | 90.62366 | 36814 ft | 485 kts | 143° |
| 2026-04-24 12:53 | 20.32073 | 90.67183 | 36810 ft | 485 kts | 143° |
| 2026-04-24 12:53 | 20.27083 | 90.71954 | 36812 ft | 485 kts | 144° |
| 2026-04-24 12:54 | 20.22066 | 90.76755 | 36812 ft | 485 kts | 143° |
| 2026-04-24 12:54 | 20.17038 | 90.81564 | 36816 ft | 486 kts | 143° |
| 2026-04-24 12:55 | 20.12009 | 90.86363 | 36806 ft | 486 kts | 143° |
| 2026-04-24 12:55 | 20.06970 | 90.91167 | 36817 ft | 486 kts | 143° |
| 2026-04-24 12:56 | 20.01960 | 90.95943 | 36824 ft | 486 kts | 143° |
| 2026-04-24 12:56 | 19.96917 | 91.00753 | 36830 ft | 486 kts | 143° |
| 2026-04-24 12:57 | 19.91881 | 91.05547 | 36831 ft | 486 kts | 143° |
| 2026-04-24 12:57 | 19.86840 | 91.10339 | 36830 ft | 486 kts | 143° |
| 2026-04-24 12:58 | 19.82649 | 91.14315 | 36831 ft | 486 kts | 143° |
| 2026-04-24 12:58 | 19.77600 | 91.19095 | 36813 ft | 486 kts | 143° |
| 2026-04-24 12:59 | 19.72567 | 91.23873 | 36825 ft | 485 kts | 143° |
| 2026-04-24 12:59 | 19.67562 | 91.28622 | 36830 ft | 485 kts | 143° |
| 2026-04-24 13:00 | 19.62526 | 91.33387 | 36831 ft | 485 kts | 143° |
| 2026-04-24 13:00 | 19.57484 | 91.38149 | 36829 ft | 485 kts | 143° |
| 2026-04-24 13:01 | 19.52442 | 91.42908 | 36831 ft | 485 kts | 143° |
| 2026-04-24 13:01 | 19.47442 | 91.47632 | 36835 ft | 485 kts | 143° |
| 2026-04-24 13:02 | 19.42406 | 91.52390 | 36828 ft | 484 kts | 143° |
| 2026-04-24 13:02 | 19.37369 | 91.57132 | 36830 ft | 484 kts | 143° |
| 2026-04-24 13:03 | 19.32333 | 91.61870 | 36834 ft | 484 kts | 143° |
| 2026-04-24 13:03 | 19.27290 | 91.66606 | 36835 ft | 484 kts | 143° |
| 2026-04-24 13:04 | 19.22286 | 91.71306 | 36838 ft | 484 kts | 143° |
| 2026-04-24 13:04 | 19.17249 | 91.76039 | 36838 ft | 484 kts | 143° |
| 2026-04-24 13:05 | 19.12211 | 91.80781 | 36838 ft | 484 kts | 143° |
| 2026-04-24 13:05 | 19.07180 | 91.85504 | 36832 ft | 483 kts | 143° |
| 2026-04-24 13:06 | 19.02132 | 91.90216 | 36833 ft | 483 kts | 143° |
| 2026-04-24 13:06 | 18.97099 | 91.94930 | 36832 ft | 483 kts | 143° |
| 2026-04-24 13:07 | 18.92144 | 91.99671 | 36834 ft | 486 kts | 137° |
| 2026-04-24 13:07 | 18.87847 | 92.05239 | 36834 ft | 490 kts | 132° |
| 2026-04-24 13:08 | 18.83633 | 92.10908 | 36833 ft | 490 kts | 132° |
| 2026-04-24 13:08 | 18.79418 | 92.16571 | 36838 ft | 490 kts | 132° |
| 2026-04-24 13:09 | 18.73068 | 92.25050 | 36838 ft | 490 kts | 132° |
| 2026-04-24 13:09 | 18.68864 | 92.30662 | 36836 ft | 490 kts | 132° |
| 2026-04-24 13:10 | 18.64630 | 92.36305 | 36840 ft | 491 kts | 132° |
| 2026-04-24 13:10 | 18.60395 | 92.41953 | 36845 ft | 491 kts | 132° |
| 2026-04-24 13:11 | 18.56159 | 92.47602 | 36851 ft | 491 kts | 132° |
| 2026-04-24 13:11 | 18.51916 | 92.53244 | 36850 ft | 490 kts | 132° |
| 2026-04-24 13:12 | 18.47675 | 92.58881 | 36848 ft | 490 kts | 132° |
| 2026-04-24 13:12 | 18.43439 | 92.64518 | 36847 ft | 490 kts | 132° |
| 2026-04-24 13:13 | 18.39221 | 92.70112 | 36838 ft | 490 kts | 132° |
| 2026-04-24 13:13 | 18.34974 | 92.75740 | 36849 ft | 490 kts | 132° |
| 2026-04-24 13:14 | 18.30741 | 92.81358 | 36854 ft | 489 kts | 132° |
| 2026-04-24 13:14 | 18.26505 | 92.86967 | 36852 ft | 489 kts | 132° |
| 2026-04-24 13:15 | 18.22299 | 92.92537 | 36855 ft | 489 kts | 132° |
| 2026-04-24 13:15 | 18.18059 | 92.98148 | 36855 ft | 489 kts | 132° |
| 2026-04-24 13:16 | 18.13818 | 93.03742 | 36850 ft | 489 kts | 132° |
| 2026-04-24 13:16 | 18.09580 | 93.09333 | 36849 ft | 489 kts | 132° |
| 2026-04-24 13:17 | 18.05367 | 93.14887 | 36841 ft | 488 kts | 132° |
| 2026-04-24 13:17 | 18.01127 | 93.20465 | 36853 ft | 488 kts | 132° |
| 2026-04-24 13:18 | 17.96921 | 93.26003 | 36855 ft | 487 kts | 132° |
| 2026-04-24 13:18 | 17.92689 | 93.31575 | 36856 ft | 487 kts | 132° |
| 2026-04-24 13:19 | 17.88460 | 93.37138 | 36856 ft | 487 kts | 132° |
| 2026-04-24 13:19 | 17.84222 | 93.42693 | 36855 ft | 487 kts | 132° |
| 2026-04-24 13:20 | 17.79985 | 93.48244 | 36854 ft | 487 kts | 132° |
| 2026-04-24 13:20 | 17.75749 | 93.53791 | 36854 ft | 487 kts | 132° |
| 2026-04-24 13:21 | 17.71543 | 93.59300 | 36849 ft | 487 kts | 132° |
| 2026-04-24 13:21 | 17.67306 | 93.64847 | 36852 ft | 486 kts | 132° |
| 2026-04-24 13:22 | 17.63075 | 93.70379 | 36857 ft | 485 kts | 132° |
| 2026-04-24 13:22 | 17.58853 | 93.75895 | 36858 ft | 485 kts | 132° |
| 2026-04-24 13:23 | 17.54662 | 93.81371 | 36859 ft | 484 kts | 132° |
| 2026-04-24 13:23 | 17.50440 | 93.86876 | 36851 ft | 484 kts | 132° |
| 2026-04-24 13:24 | 17.46218 | 93.92384 | 36851 ft | 484 kts | 132° |
| 2026-04-24 13:24 | 17.41998 | 93.97881 | 36850 ft | 484 kts | 132° |
| 2026-04-24 13:25 | 17.37763 | 94.03374 | 36849 ft | 484 kts | 132° |
| 2026-04-24 13:25 | 17.33554 | 94.08837 | 36841 ft | 484 kts | 132° |
| 2026-04-24 13:26 | 17.29336 | 94.14326 | 36846 ft | 484 kts | 132° |
| 2026-04-24 13:26 | 17.25112 | 94.19812 | 36849 ft | 484 kts | 132° |
| 2026-04-24 13:27 | 17.20909 | 94.25252 | 36849 ft | 483 kts | 132° |
| 2026-04-24 13:27 | 17.16679 | 94.30730 | 36851 ft | 483 kts | 132° |
| 2026-04-24 13:28 | 17.12455 | 94.36204 | 36849 ft | 483 kts | 132° |
| 2026-04-24 13:28 | 17.08227 | 94.41672 | 36850 ft | 483 kts | 132° |
| 2026-04-24 13:29 | 17.03998 | 94.47148 | 36851 ft | 483 kts | 132° |
| 2026-04-24 13:29 | 16.99770 | 94.52613 | 36840 ft | 483 kts | 132° |
| 2026-04-24 13:30 | 16.95564 | 94.58033 | 36840 ft | 482 kts | 132° |
| 2026-04-24 13:30 | 16.91335 | 94.63478 | 36842 ft | 482 kts | 131° |
| 2026-04-24 13:31 | 16.87109 | 94.68915 | 36845 ft | 482 kts | 131° |
| 2026-04-24 13:31 | 16.82884 | 94.74358 | 36841 ft | 482 kts | 131° |
| 2026-04-24 13:32 | 16.79256 | 94.80204 | 36840 ft | 485 kts | 119° |
| 2026-04-24 13:32 | 16.76181 | 94.86490 | 36838 ft | 486 kts | 119° |
| 2026-04-24 13:33 | 16.73106 | 94.92765 | 36833 ft | 486 kts | 119° |
| 2026-04-24 13:33 | 16.70035 | 94.99002 | 36839 ft | 485 kts | 119° |
| 2026-04-24 13:34 | 16.66937 | 95.05268 | 36834 ft | 485 kts | 119° |
| 2026-04-24 13:34 | 16.63843 | 95.11539 | 36833 ft | 486 kts | 119° |
| 2026-04-24 13:35 | 16.60763 | 95.17797 | 36836 ft | 485 kts | 119° |
| 2026-04-24 13:35 | 16.57691 | 95.24019 | 36841 ft | 485 kts | 119° |
| 2026-04-24 13:36 | 16.54593 | 95.30267 | 36839 ft | 485 kts | 119° |
| 2026-04-24 13:36 | 16.51490 | 95.36516 | 36839 ft | 485 kts | 119° |
| 2026-04-24 13:37 | 16.48396 | 95.42767 | 36840 ft | 484 kts | 119° |
| 2026-04-24 13:37 | 16.45307 | 95.49007 | 36837 ft | 484 kts | 119° |
| 2026-04-24 13:38 | 16.42238 | 95.55189 | 36838 ft | 483 kts | 119° |
| 2026-04-24 13:38 | 16.39144 | 95.61409 | 36837 ft | 483 kts | 119° |
| 2026-04-24 13:39 | 16.36050 | 95.67631 | 36832 ft | 483 kts | 119° |
| 2026-04-24 13:39 | 16.32959 | 95.73846 | 36832 ft | 483 kts | 119° |
| 2026-04-24 13:40 | 16.29864 | 95.80056 | 36837 ft | 482 kts | 119° |
| 2026-04-24 13:40 | 16.26795 | 95.86216 | 36836 ft | 482 kts | 119° |
| 2026-04-24 13:41 | 16.23702 | 95.92414 | 36833 ft | 482 kts | 119° |
| 2026-04-24 13:41 | 16.20606 | 95.98599 | 36836 ft | 481 kts | 119° |
| 2026-04-24 13:42 | 16.17512 | 96.04773 | 36834 ft | 481 kts | 119° |
| 2026-04-24 13:42 | 16.14432 | 96.10945 | 36839 ft | 480 kts | 118° |
| 2026-04-24 13:43 | 16.11370 | 96.17064 | 36841 ft | 480 kts | 118° |
| 2026-04-24 13:43 | 16.08289 | 96.23222 | 36841 ft | 479 kts | 118° |
| 2026-04-24 13:44 | 16.05205 | 96.29364 | 36838 ft | 479 kts | 118° |
| 2026-04-24 13:44 | 16.02115 | 96.35505 | 36840 ft | 479 kts | 118° |
| 2026-04-24 13:45 | 15.99054 | 96.41604 | 36839 ft | 478 kts | 118° |
| 2026-04-24 13:45 | 15.95974 | 96.47733 | 36840 ft | 478 kts | 118° |
| 2026-04-24 13:46 | 15.92884 | 96.53863 | 36840 ft | 478 kts | 118° |
| 2026-04-24 13:46 | 15.89798 | 96.59980 | 36843 ft | 478 kts | 118° |
| 2026-04-24 13:47 | 15.86711 | 96.66096 | 36845 ft | 477 kts | 118° |
| 2026-04-24 13:47 | 15.83645 | 96.72166 | 36848 ft | 477 kts | 118° |
| 2026-04-24 13:48 | 15.80556 | 96.78267 | 36848 ft | 477 kts | 118° |
| 2026-04-24 13:48 | 15.77997 | 96.83332 | 36847 ft | 477 kts | 118° |
| 2026-04-24 13:49 | 15.74913 | 96.89447 | 36852 ft | 477 kts | 118° |
| 2026-04-24 13:49 | 15.71826 | 96.95545 | 36846 ft | 477 kts | 118° |
| 2026-04-24 13:50 | 15.68751 | 97.01595 | 36854 ft | 476 kts | 118° |
| 2026-04-24 13:50 | 15.65661 | 97.07685 | 36850 ft | 476 kts | 118° |
| 2026-04-24 13:51 | 15.62567 | 97.13774 | 36855 ft | 476 kts | 118° |
| 2026-04-24 13:51 | 15.59502 | 97.19811 | 36853 ft | 476 kts | 118° |
| 2026-04-24 13:52 | 15.56419 | 97.25883 | 36856 ft | 475 kts | 118° |
| 2026-04-24 13:52 | 15.53329 | 97.31946 | 36845 ft | 475 kts | 118° |
| 2026-04-24 13:53 | 15.50230 | 97.38015 | 36867 ft | 475 kts | 118° |
| 2026-04-24 13:53 | 15.47164 | 97.44013 | 36871 ft | 473 kts | 118° |
| 2026-04-24 13:54 | 15.44098 | 97.50043 | 36869 ft | 472 kts | 118° |
| 2026-04-24 13:54 | 15.41117 | 97.56114 | 36865 ft | 471 kts | 117° |
| 2026-04-24 13:55 | 15.38219 | 97.62203 | 36867 ft | 471 kts | 117° |
| 2026-04-24 13:55 | 15.35322 | 97.68277 | 36866 ft | 470 kts | 117° |
| 2026-04-24 13:56 | 15.32417 | 97.74292 | 36874 ft | 469 kts | 117° |
| 2026-04-24 13:56 | 15.29483 | 97.80341 | 36880 ft | 470 kts | 117° |
| 2026-04-24 13:57 | 15.26550 | 97.86397 | 36876 ft | 470 kts | 117° |
| 2026-04-24 13:57 | 15.23615 | 97.92448 | 36885 ft | 470 kts | 117° |
| 2026-04-24 13:58 | 15.20702 | 97.98463 | 36890 ft | 469 kts | 117° |
| 2026-04-24 13:58 | 15.17773 | 98.04509 | 36899 ft | 469 kts | 117° |
| 2026-04-24 13:59 | 15.14845 | 98.10541 | 36898 ft | 469 kts | 117° |
| 2026-04-24 13:59 | 15.11909 | 98.16579 | 36886 ft | 468 kts | 117° |
| 2026-04-24 14:00 | 15.08994 | 98.22550 | 36902 ft | 468 kts | 117° |
| 2026-04-24 14:00 | 15.06026 | 98.28546 | 36896 ft | 468 kts | 118° |
| 2026-04-24 14:01 | 15.03034 | 98.34530 | 36914 ft | 468 kts | 118° |
| 2026-04-24 14:01 | 15.00045 | 98.40510 | 36910 ft | 468 kts | 118° |
| 2026-04-24 14:02 | 14.97081 | 98.46457 | 36908 ft | 468 kts | 117° |
| 2026-04-24 14:02 | 14.94103 | 98.52442 | 36917 ft | 467 kts | 117° |
| 2026-04-24 14:03 | 14.91120 | 98.58423 | 36924 ft | 467 kts | 117° |
| 2026-04-24 14:03 | 14.88154 | 98.64357 | 36924 ft | 467 kts | 118° |
| 2026-04-24 14:04 | 14.85414 | 98.69838 | 36925 ft | 467 kts | 117° |
| 2026-04-24 14:04 | 14.82503 | 98.75668 | 36922 ft | 467 kts | 117° |
| 2026-04-24 14:05 | 14.79468 | 98.81711 | 36933 ft | 467 kts | 118° |
| 2026-04-24 14:05 | 14.76480 | 98.87671 | 36930 ft | 467 kts | 117° |
| 2026-04-24 14:06 | 14.73517 | 98.93598 | 36941 ft | 466 kts | 117° |
| 2026-04-24 14:06 | 14.70546 | 98.99541 | 36942 ft | 466 kts | 117° |
| 2026-04-24 14:07 | 14.67556 | 99.05472 | 36937 ft | 465 kts | 117° |
| 2026-04-24 14:07 | 14.64540 | 99.11459 | 36655 ft | 478 kts | 117° |
| 2026-04-24 14:08 | 14.62992 | 99.14541 | 35967 ft | 488 kts | 117° |
| 2026-04-24 14:08 | 14.61424 | 99.17662 | 35219 ft | 489 kts | 117° |
| 2026-04-24 14:08 | 14.59881 | 99.20731 | 34672 ft | 485 kts | 117° |
| 2026-04-24 14:08 | 14.58323 | 99.23825 | 34028 ft | 484 kts | 117° |
| 2026-04-24 14:09 | 14.56767 | 99.26912 | 33317 ft | 483 kts | 117° |
| 2026-04-24 14:09 | 14.55218 | 99.29981 | 32378 ft | 480 kts | 117° |
| 2026-04-24 14:09 | 14.53674 | 99.33040 | 31113 ft | 480 kts | 117° |
| 2026-04-24 14:09 | 14.52146 | 99.36069 | 30436 ft | 466 kts | 116° |
| 2026-04-24 14:10 | 14.50694 | 99.38952 | 29854 ft | 451 kts | 116° |
| 2026-04-24 14:10 | 14.49258 | 99.41805 | 29225 ft | 446 kts | 116° |
| 2026-04-24 14:10 | 14.47835 | 99.44633 | 28641 ft | 442 kts | 116° |
| 2026-04-24 14:10 | 14.46417 | 99.47446 | 28068 ft | 439 kts | 116° |
| 2026-04-24 14:11 | 14.45045 | 99.50255 | 27501 ft | 436 kts | 112° |
| 2026-04-24 14:11 | 14.44080 | 99.53198 | 26953 ft | 431 kts | 102° |
| 2026-04-24 14:11 | 14.43448 | 99.59282 | 25865 ft | 423 kts | 92° |
| 2026-04-24 14:12 | 14.43264 | 99.62261 | 25356 ft | 420 kts | 92° |
| 2026-04-24 14:12 | 14.43077 | 99.65254 | 24854 ft | 417 kts | 92° |
| 2026-04-24 14:12 | 14.42887 | 99.68229 | 24360 ft | 414 kts | 93° |
| 2026-04-24 14:12 | 14.42699 | 99.71190 | 23856 ft | 411 kts | 93° |
| 2026-04-24 14:13 | 14.42509 | 99.74130 | 23368 ft | 409 kts | 92° |
| 2026-04-24 14:13 | 14.42323 | 99.77044 | 22844 ft | 405 kts | 93° |
| 2026-04-24 14:13 | 14.42141 | 99.79933 | 22378 ft | 401 kts | 93° |
| 2026-04-24 14:13 | 14.41961 | 99.82792 | 21914 ft | 397 kts | 93° |
| 2026-04-24 14:14 | 14.41781 | 99.85630 | 21428 ft | 394 kts | 93° |
| 2026-04-24 14:14 | 14.41601 | 99.88440 | 20968 ft | 392 kts | 93° |
| 2026-04-24 14:14 | 14.41247 | 99.93983 | 20014 ft | 388 kts | 94° |
| 2026-04-24 14:15 | 14.41068 | 99.96760 | 19531 ft | 386 kts | 94° |
| 2026-04-24 14:15 | 14.40889 | 99.99523 | 19040 ft | 386 kts | 94° |
| 2026-04-24 14:15 | 14.40708 | 100.02283 | 18550 ft | 385 kts | 94° |
| 2026-04-24 14:15 | 14.40525 | 100.05044 | 18047 ft | 384 kts | 96° |
| 2026-04-24 14:16 | 14.40033 | 100.07740 | 17634 ft | 379 kts | 105° |
| 2026-04-24 14:16 | 14.39372 | 100.10340 | 17312 ft | 372 kts | 104° |
| 2026-04-24 14:16 | 14.38728 | 100.12910 | 17106 ft | 368 kts | 104° |
| 2026-04-24 14:17 | 14.37464 | 100.17994 | 16565 ft | 364 kts | 104° |
| 2026-04-24 14:17 | 14.36835 | 100.20525 | 16297 ft | 363 kts | 104° |
| 2026-04-24 14:17 | 14.35593 | 100.25513 | 15766 ft | 359 kts | 104° |
| 2026-04-24 14:18 | 14.34973 | 100.28003 | 15498 ft | 358 kts | 104° |
| 2026-04-24 14:18 | 14.34351 | 100.30482 | 15234 ft | 355 kts | 104° |
| 2026-04-24 14:18 | 14.33730 | 100.32945 | 14972 ft | 354 kts | 104° |
| 2026-04-24 14:18 | 14.33114 | 100.35394 | 14666 ft | 352 kts | 104° |
| 2026-04-24 14:19 | 14.32708 | 100.37015 | 14425 ft | 351 kts | 104° |
| 2026-04-24 14:19 | 14.31894 | 100.40269 | 13972 ft | 349 kts | 104° |
| 2026-04-24 14:19 | 14.31300 | 100.42638 | 13801 ft | 340 kts | 104° |
| 2026-04-24 14:19 | 14.30717 | 100.44956 | 13687 ft | 329 kts | 104° |
| 2026-04-24 14:20 | 14.30150 | 100.47214 | 13521 ft | 321 kts | 104° |
| 2026-04-24 14:20 | 14.29595 | 100.49430 | 13267 ft | 316 kts | 104° |
| 2026-04-24 14:20 | 14.29047 | 100.51616 | 13030 ft | 313 kts | 104° |
| 2026-04-24 14:20 | 14.28502 | 100.53781 | 12790 ft | 312 kts | 103° |
| 2026-04-24 14:21 | 14.27959 | 100.55937 | 12624 ft | 310 kts | 103° |
| 2026-04-24 14:21 | 14.27415 | 100.58093 | 12447 ft | 310 kts | 104° |
| 2026-04-24 14:21 | 14.26873 | 100.60245 | 12220 ft | 309 kts | 104° |
| 2026-04-24 14:21 | 14.26328 | 100.62385 | 11988 ft | 308 kts | 105° |
| 2026-04-24 14:22 | 14.25378 | 100.64342 | 11753 ft | 306 kts | 130° |
| 2026-04-24 14:22 | 14.23729 | 100.65653 | 11527 ft | 305 kts | 156° |
| 2026-04-24 14:22 | 14.19601 | 100.65670 | 11048 ft | 304 kts | 194° |
| 2026-04-24 14:23 | 14.17546 | 100.65128 | 10802 ft | 304 kts | 194° |
| 2026-04-24 14:23 | 14.15501 | 100.64584 | 10572 ft | 302 kts | 195° |
| 2026-04-24 14:23 | 14.13464 | 100.64040 | 10335 ft | 302 kts | 194° |
| 2026-04-24 14:23 | 14.11432 | 100.63500 | 10100 ft | 301 kts | 194° |
| 2026-04-24 14:24 | 14.09407 | 100.62965 | 9850 ft | 299 kts | 194° |
| 2026-04-24 14:24 | 14.07393 | 100.62436 | 9624 ft | 298 kts | 194° |
| 2026-04-24 14:24 | 14.05412 | 100.61918 | 9384 ft | 297 kts | 194° |
| 2026-04-24 14:24 | 14.03428 | 100.61398 | 9199 ft | 288 kts | 194° |
| 2026-04-24 14:25 | 14.02120 | 100.61117 | 9112 ft | 281 kts | 184° |
| 2026-04-24 14:25 | 13.99747 | 100.61773 | 8950 ft | 264 kts | 141° |
| 2026-04-24 14:25 | 13.98630 | 100.63217 | 8645 ft | 259 kts | 110° |
| 2026-04-24 14:25 | 13.98132 | 100.64992 | 8339 ft | 257 kts | 104° |
| 2026-04-24 14:26 | 13.97683 | 100.66762 | 8032 ft | 254 kts | 104° |
| 2026-04-24 14:26 | 13.97239 | 100.68489 | 7740 ft | 252 kts | 104° |
| 2026-04-24 14:26 | 13.97106 | 100.70255 | 7446 ft | 248 kts | 78° |
| 2026-04-24 14:26 | 13.97870 | 100.71812 | 7142 ft | 246 kts | 46° |
| 2026-04-24 14:27 | 13.99317 | 100.72725 | 6861 ft | 248 kts | 18° |
| 2026-04-24 14:27 | 14.01014 | 100.73254 | 6238 ft | 265 kts | 22° |
| 2026-04-24 14:27 | 14.02590 | 100.74275 | 5713 ft | 270 kts | 44° |
| 2026-04-24 14:27 | 14.03622 | 100.75867 | 5523 ft | 269 kts | 70° |
| 2026-04-24 14:28 | 14.03937 | 100.77761 | 5520 ft | 271 kts | 91° |
| 2026-04-24 14:28 | 14.03637 | 100.79678 | 5310 ft | 272 kts | 109° |
| 2026-04-24 14:28 | 14.02766 | 100.81362 | 4963 ft | 269 kts | 128° |
| 2026-04-24 14:28 | 14.01400 | 100.82653 | 4698 ft | 266 kts | 147° |
| 2026-04-24 14:29 | 13.99695 | 100.83403 | 4686 ft | 269 kts | 165° |
| 2026-04-24 14:29 | 13.97823 | 100.83561 | 4691 ft | 272 kts | 184° |
| 2026-04-24 14:29 | 13.95959 | 100.83162 | 4694 ft | 275 kts | 192° |
| 2026-04-24 14:29 | 13.94098 | 100.82666 | 4664 ft | 276 kts | 192° |
| 2026-04-24 14:30 | 13.92865 | 100.82338 | 4498 ft | 276 kts | 192° |
| 2026-04-24 14:30 | 13.90418 | 100.81694 | 4055 ft | 272 kts | 192° |
| 2026-04-24 14:30 | 13.88591 | 100.81213 | 3714 ft | 270 kts | 192° |
| 2026-04-24 14:30 | 13.86790 | 100.80739 | 3372 ft | 262 kts | 192° |
| 2026-04-24 14:31 | 13.85072 | 100.80286 | 3053 ft | 248 kts | 192° |
| 2026-04-24 14:31 | 13.83424 | 100.79853 | 2746 ft | 250 kts | 192° |
| 2026-04-24 14:31 | 13.81741 | 100.79411 | 2419 ft | 244 kts | 193° |
| 2026-04-24 14:31 | 13.80137 | 100.78987 | 2120 ft | 231 kts | 193° |
| 2026-04-24 14:32 | 13.78607 | 100.78585 | 1830 ft | 222 kts | 193° |
| 2026-04-24 14:32 | 13.77180 | 100.78209 | 1557 ft | 205 kts | 194° |
| 2026-04-24 14:32 | 13.75860 | 100.77862 | 1322 ft | 185 kts | 194° |
| 2026-04-24 14:32 | 13.74669 | 100.77549 | 1092 ft | 168 kts | 193° |
| 2026-04-24 14:33 | 13.73567 | 100.77260 | 878 ft | 158 kts | 194° |
| 2026-04-24 14:33 | 13.72530 | 100.77000 | 677 ft | 150 kts | 195° |
| 2026-04-24 14:33 | 13.71532 | 100.76743 | 502 ft | 146 kts | 195° |
| 2026-04-24 14:33 | 13.70563 | 100.76477 | 334 ft | 142 kts | 194° |
| 2026-04-24 14:34 | 13.69610 | 100.76222 | 163 ft | 140 kts | 193° |
| 2026-04-24 14:34 | 13.68673 | 100.75975 | 28 ft | 135 kts | 193° |
| 2026-04-24 14:34 | 13.67891 | 100.75768 | 11 ft | 91 kts | 194° |
| 2026-04-24 14:34 | 13.67441 | 100.75650 | 13 ft | 41 kts | 194° |
| 2026-04-24 14:35 | 13.67248 | 100.75579 | 15 ft | 28 kts | 210° |
| 2026-04-24 14:35 | 13.67117 | 100.75470 | 13 ft | 16 kts | 224° |
| 2026-04-24 14:35 | 13.67120 | 100.75382 | 13 ft | 14 kts | 343° |
| 2026-04-24 14:35 | 13.67194 | 100.75393 | 13 ft | 8 kts | 14° |
| 2026-04-24 14:36 | 13.67247 | 100.75407 | 13 ft | 7 kts | 14° |
| 2026-04-24 14:36 | 13.67317 | 100.75426 | 13 ft | 14 kts | 14° |
| 2026-04-24 14:36 | 13.67430 | 100.75456 | 13 ft | 17 kts | 14° |
| 2026-04-24 14:36 | 13.67542 | 100.75485 | 13 ft | 17 kts | 14° |
| 2026-04-24 14:37 | 13.67679 | 100.75521 | 13 ft | 21 kts | 14° |
| 2026-04-24 14:37 | 13.67814 | 100.75557 | 13 ft | 19 kts | 14° |
| 2026-04-24 14:37 | 13.67939 | 100.75589 | 13 ft | 18 kts | 14° |
| 2026-04-24 14:37 | 13.68055 | 100.75620 | 13 ft | 17 kts | 14° |
| 2026-04-24 14:38 | 13.68161 | 100.75647 | 13 ft | 15 kts | 14° |
| 2026-04-24 14:38 | 13.68277 | 100.75678 | 13 ft | 20 kts | 14° |
| 2026-04-24 14:38 | 13.68399 | 100.75709 | 13 ft | 14 kts | 8° |
| 2026-04-24 14:38 | 13.68456 | 100.75652 | 13 ft | 12 kts | 284° |
| 2026-04-24 14:39 | 13.68476 | 100.75572 | 15 ft | 11 kts | 284° |
| 2026-04-24 14:39 | 13.68498 | 100.75486 | 13 ft | 14 kts | 285° |
| 2026-04-24 14:39 | 13.68572 | 100.75455 | 13 ft | 12 kts | 13° |
| 2026-04-24 14:39 | 13.68643 | 100.75473 | 13 ft | 10 kts | 14° |
| 2026-04-24 14:40 | 13.68704 | 100.75490 | 13 ft | 8 kts | 14° |
| 2026-04-24 14:40 | 13.68752 | 100.75488 | 14 ft | 6 kts | 311° |
| 2026-04-24 14:40 | 13.68763 | 100.75449 | 13 ft | 5 kts | 284° |
| 2026-04-24 14:40 | 13.68771 | 100.75419 | 13 ft | 3 kts | 284° |
| 2026-04-24 14:41 | 13.68774 | 100.75405 | 13 ft | 1 kts | 284° |
| 2026-04-24 14:41 | 13.68775 | 100.75404 | 13 ft | 0 kts | 284° |